sensor_id;sensor_type;location;lat;lon;timestamp;temperature;humidity
14349;DHT22;7258;50.376;8.742;2022-10-30T00:00:06;12.20;99.90
14349;DHT22;7258;50.376;8.742;2022-10-30T00:02:09;12.10;99.90
14349;DHT22;7258;50.376;8.742;2022-10-30T00:04:13;12.20;99.90
14349;DHT22;7258;50.376;8.742;2022-10-30T00:06:16;12.20;99.90
14349;DHT22;7258;50.376;8.742;2022-10-30T00:08:23;12.20;99.90
14349;DHT22;7258;50.376;8.742;2022-10-30T00:10:27;12.20;99.90
14349;DHT22;7258;50.376;8.742;2022-10-30T00:12:29;12.20;99.90
14349;DHT22;7258;50.376;8.742;2022-10-30T00:14:34;12.20;99.90
14349;DHT22;7258;50.376;8.742;2022-10-30T00:16:36;12.10;99.90
14349;DHT22;7258;50.376;8.742;2022-10-30T00:18:39;12.10;99.90
14349;DHT22;7258;50.376;8.742;2022-10-30T00:20:43;12.00;99.90
14349;DHT22;7258;50.376;8.742;2022-10-30T00:22:46;12.00;99.90
14349;DHT22;7258;50.376;8.742;2022-10-30T00:24:49;12.00;99.90
14349;DHT22;7258;50.376;8.742;2022-10-30T00:26:52;12.00;99.90
14349;DHT22;7258;50.376;8.742;2022-10-30T00:28:55;12.00;99.90
14349;DHT22;7258;50.376;8.742;2022-10-30T00:31:00;12.00;99.90
14349;DHT22;7258;50.376;8.742;2022-10-30T00:33:03;12.00;99.90
14349;DHT22;7258;50.376;8.742;2022-10-30T00:35:07;11.90;99.90
14349;DHT22;7258;50.376;8.742;2022-10-30T00:37:09;11.90;99.90
14349;DHT22;7258;50.376;8.742;2022-10-30T00:39:12;11.90;99.90
14349;DHT22;7258;50.376;8.742;2022-10-30T00:41:18;11.90;99.90
14349;DHT22;7258;50.376;8.742;2022-10-30T00:43:30;11.90;99.90
14349;DHT22;7258;50.376;8.742;2022-10-30T00:45:33;11.90;99.90
14349;DHT22;7258;50.376;8.742;2022-10-30T00:47:39;11.80;99.90
14349;DHT22;7258;50.376;8.742;2022-10-30T00:49:49;11.80;99.90
14349;DHT22;7258;50.376;8.742;2022-10-30T00:51:53;11.90;99.90
14349;DHT22;7258;50.376;8.742;2022-10-30T00:53:58;11.90;99.90
14349;DHT22;7258;50.376;8.742;2022-10-30T00:56:04;11.90;99.90
14349;DHT22;7258;50.376;8.742;2022-10-30T00:58:10;11.90;99.90
14349;DHT22;7258;50.376;8.742;2022-10-30T01:00:15;11.90;99.90
14349;DHT22;7258;50.376;8.742;2022-10-30T01:02:20;11.90;99.90
14349;DHT22;7258;50.376;8.742;2022-10-30T01:04:25;11.80;99.90
14349;DHT22;7258;50.376;8.742;2022-10-30T01:06:32;11.80;99.90
14349;DHT22;7258;50.376;8.742;2022-10-30T01:08:36;11.70;99.90
14349;DHT22;7258;50.376;8.742;2022-10-30T01:10:39;11.70;99.90
14349;DHT22;7258;50.376;8.742;2022-10-30T01:12:43;11.70;99.90
14349;DHT22;7258;50.376;8.742;2022-10-30T01:14:49;11.60;99.90
14349;DHT22;7258;50.376;8.742;2022-10-30T01:17:10;11.60;99.90
14349;DHT22;7258;50.376;8.742;2022-10-30T01:19:21;11.60;99.90
14349;DHT22;7258;50.376;8.742;2022-10-30T01:21:37;11.50;99.90
14349;DHT22;7258;50.376;8.742;2022-10-30T01:23:50;11.50;99.90
14349;DHT22;7258;50.376;8.742;2022-10-30T01:26:03;11.40;99.90
14349;DHT22;7258;50.376;8.742;2022-10-30T01:28:19;11.40;99.90
14349;DHT22;7258;50.376;8.742;2022-10-30T01:30:40;11.30;99.90
14349;DHT22;7258;50.376;8.742;2022-10-30T01:32:55;11.30;99.90
14349;DHT22;7258;50.376;8.742;2022-10-30T01:35:05;11.30;99.90
14349;DHT22;7258;50.376;8.742;2022-10-30T01:37:15;11.30;99.90
14349;DHT22;7258;50.376;8.742;2022-10-30T01:39:21;11.30;99.90
14349;DHT22;7258;50.376;8.742;2022-10-30T01:41:25;11.30;99.90
14349;DHT22;7258;50.376;8.742;2022-10-30T01:43:28;11.40;99.90
14349;DHT22;7258;50.376;8.742;2022-10-30T01:45:50;11.40;99.90
14349;DHT22;7258;50.376;8.742;2022-10-30T01:48:18;11.50;99.90
14349;DHT22;7258;50.376;8.742;2022-10-30T01:50:31;11.50;99.90
14349;DHT22;7258;50.376;8.742;2022-10-30T01:52:41;11.50;99.90
14349;DHT22;7258;50.376;8.742;2022-10-30T01:54:51;11.50;99.90
14349;DHT22;7258;50.376;8.742;2022-10-30T01:57:02;11.40;99.90
14349;DHT22;7258;50.376;8.742;2022-10-30T01:59:10;11.50;99.90
14349;DHT22;7258;50.376;8.742;2022-10-30T02:01:16;11.40;99.90
14349;DHT22;7258;50.376;8.742;2022-10-30T02:03:20;11.40;99.90
14349;DHT22;7258;50.376;8.742;2022-10-30T02:05:29;11.40;99.90
14349;DHT22;7258;50.376;8.742;2022-10-30T02:07:34;11.30;99.90
14349;DHT22;7258;50.376;8.742;2022-10-30T02:09:39;11.30;99.90
14349;DHT22;7258;50.376;8.742;2022-10-30T02:11:43;11.30;99.90
14349;DHT22;7258;50.376;8.742;2022-10-30T02:13:47;11.20;99.90
14349;DHT22;7258;50.376;8.742;2022-10-30T02:15:51;11.10;99.90
14349;DHT22;7258;50.376;8.742;2022-10-30T02:17:55;11.10;99.90
14349;DHT22;7258;50.376;8.742;2022-10-30T02:19:58;11.00;99.90
14349;DHT22;7258;50.376;8.742;2022-10-30T02:22:03;11.00;99.90
14349;DHT22;7258;50.376;8.742;2022-10-30T02:24:06;11.00;99.90
14349;DHT22;7258;50.376;8.742;2022-10-30T02:26:09;11.00;99.90
14349;DHT22;7258;50.376;8.742;2022-10-30T02:28:12;10.90;99.90
14349;DHT22;7258;50.376;8.742;2022-10-30T02:30:15;10.80;99.90
14349;DHT22;7258;50.376;8.742;2022-10-30T02:32:18;10.80;99.90
14349;DHT22;7258;50.376;8.742;2022-10-30T02:34:21;10.80;99.90
14349;DHT22;7258;50.376;8.742;2022-10-30T02:36:23;10.70;99.90
14349;DHT22;7258;50.376;8.742;2022-10-30T02:38:27;10.70;99.90
14349;DHT22;7258;50.376;8.742;2022-10-30T02:40:32;10.70;99.90
14349;DHT22;7258;50.376;8.742;2022-10-30T02:42:35;10.70;99.90
14349;DHT22;7258;50.376;8.742;2022-10-30T02:44:38;10.70;99.90
14349;DHT22;7258;50.376;8.742;2022-10-30T02:46:40;10.70;99.90
14349;DHT22;7258;50.376;8.742;2022-10-30T02:48:43;10.70;99.90
14349;DHT22;7258;50.376;8.742;2022-10-30T02:50:46;10.70;99.90
14349;DHT22;7258;50.376;8.742;2022-10-30T02:52:48;10.70;99.90
14349;DHT22;7258;50.376;8.742;2022-10-30T02:54:53;10.70;99.90
14349;DHT22;7258;50.376;8.742;2022-10-30T02:56:55;10.80;99.90
14349;DHT22;7258;50.376;8.742;2022-10-30T02:58:58;10.80;99.90
14349;DHT22;7258;50.376;8.742;2022-10-30T03:01:05;10.80;99.90
14349;DHT22;7258;50.376;8.742;2022-10-30T03:03:08;10.90;99.90
14349;DHT22;7258;50.376;8.742;2022-10-30T03:05:10;10.90;99.90
14349;DHT22;7258;50.376;8.742;2022-10-30T03:07:13;10.90;99.90
14349;DHT22;7258;50.376;8.742;2022-10-30T03:09:16;10.90;99.90
14349;DHT22;7258;50.376;8.742;2022-10-30T03:11:20;10.90;99.90
14349;DHT22;7258;50.376;8.742;2022-10-30T03:13:23;10.90;99.90
14349;DHT22;7258;50.376;8.742;2022-10-30T03:15:26;10.90;99.90
14349;DHT22;7258;50.376;8.742;2022-10-30T03:17:29;10.90;99.90
14349;DHT22;7258;50.376;8.742;2022-10-30T03:19:31;11.00;99.90
14349;DHT22;7258;50.376;8.742;2022-10-30T03:21:34;11.00;99.90
14349;DHT22;7258;50.376;8.742;2022-10-30T03:23:37;11.00;99.90
14349;DHT22;7258;50.376;8.742;2022-10-30T03:25:40;11.00;99.90
14349;DHT22;7258;50.376;8.742;2022-10-30T03:27:44;11.00;99.90
14349;DHT22;7258;50.376;8.742;2022-10-30T03:29:47;11.10;99.90
14349;DHT22;7258;50.376;8.742;2022-10-30T03:31:49;11.10;99.90
14349;DHT22;7258;50.376;8.742;2022-10-30T03:33:52;11.10;99.90
14349;DHT22;7258;50.376;8.742;2022-10-30T03:35:55;11.10;99.90
14349;DHT22;7258;50.376;8.742;2022-10-30T03:37:58;11.00;99.90
14349;DHT22;7258;50.376;8.742;2022-10-30T03:40:01;11.00;99.90
14349;DHT22;7258;50.376;8.742;2022-10-30T03:42:04;11.00;99.90
14349;DHT22;7258;50.376;8.742;2022-10-30T03:44:08;11.00;99.90
14349;DHT22;7258;50.376;8.742;2022-10-30T03:46:10;11.00;99.90
14349;DHT22;7258;50.376;8.742;2022-10-30T03:48:14;11.00;99.90
14349;DHT22;7258;50.376;8.742;2022-10-30T03:50:17;11.00;99.90
14349;DHT22;7258;50.376;8.742;2022-10-30T03:52:20;11.00;99.90
14349;DHT22;7258;50.376;8.742;2022-10-30T03:54:23;11.00;99.90
14349;DHT22;7258;50.376;8.742;2022-10-30T03:56:25;11.00;99.90
14349;DHT22;7258;50.376;8.742;2022-10-30T03:58:28;10.90;99.90
14349;DHT22;7258;50.376;8.742;2022-10-30T04:00:33;10.90;99.90
14349;DHT22;7258;50.376;8.742;2022-10-30T04:02:36;10.90;99.90
14349;DHT22;7258;50.376;8.742;2022-10-30T04:04:39;10.90;99.90
14349;DHT22;7258;50.376;8.742;2022-10-30T04:06:42;10.90;99.90
14349;DHT22;7258;50.376;8.742;2022-10-30T04:08:45;10.90;99.90
14349;DHT22;7258;50.376;8.742;2022-10-30T04:10:48;10.90;99.90
14349;DHT22;7258;50.376;8.742;2022-10-30T04:12:51;11.00;99.90
14349;DHT22;7258;50.376;8.742;2022-10-30T04:14:55;11.00;99.90
14349;DHT22;7258;50.376;8.742;2022-10-30T04:16:59;11.00;99.90
14349;DHT22;7258;50.376;8.742;2022-10-30T04:19:02;11.00;99.90
14349;DHT22;7258;50.376;8.742;2022-10-30T04:21:05;11.00;99.90
14349;DHT22;7258;50.376;8.742;2022-10-30T04:23:12;11.00;99.90
14349;DHT22;7258;50.376;8.742;2022-10-30T04:25:15;11.00;99.90
14349;DHT22;7258;50.376;8.742;2022-10-30T04:27:19;11.00;99.90
14349;DHT22;7258;50.376;8.742;2022-10-30T04:29:22;11.00;99.90
14349;DHT22;7258;50.376;8.742;2022-10-30T04:31:25;10.90;99.90
14349;DHT22;7258;50.376;8.742;2022-10-30T04:33:29;10.90;99.90
14349;DHT22;7258;50.376;8.742;2022-10-30T04:35:33;10.90;99.90
14349;DHT22;7258;50.376;8.742;2022-10-30T04:37:37;10.90;99.90
14349;DHT22;7258;50.376;8.742;2022-10-30T04:39:41;10.90;99.90
14349;DHT22;7258;50.376;8.742;2022-10-30T04:41:47;10.90;99.90
14349;DHT22;7258;50.376;8.742;2022-10-30T04:43:50;10.90;99.90
14349;DHT22;7258;50.376;8.742;2022-10-30T04:45:53;10.90;99.90
14349;DHT22;7258;50.376;8.742;2022-10-30T04:47:59;11.00;99.90
14349;DHT22;7258;50.376;8.742;2022-10-30T04:50:05;11.00;99.90
14349;DHT22;7258;50.376;8.742;2022-10-30T04:52:08;11.00;99.90
14349;DHT22;7258;50.376;8.742;2022-10-30T04:54:11;11.00;99.90
14349;DHT22;7258;50.376;8.742;2022-10-30T04:56:14;11.00;99.90
14349;DHT22;7258;50.376;8.742;2022-10-30T04:58:17;11.00;99.90
14349;DHT22;7258;50.376;8.742;2022-10-30T05:00:20;10.90;99.90
14349;DHT22;7258;50.376;8.742;2022-10-30T05:02:23;10.90;99.90
14349;DHT22;7258;50.376;8.742;2022-10-30T05:04:27;10.90;99.90
14349;DHT22;7258;50.376;8.742;2022-10-30T05:06:31;11.00;99.90
14349;DHT22;7258;50.376;8.742;2022-10-30T05:08:34;11.00;99.90
14349;DHT22;7258;50.376;8.742;2022-10-30T05:10:38;11.00;99.90
14349;DHT22;7258;50.376;8.742;2022-10-30T05:12:41;11.00;99.90
14349;DHT22;7258;50.376;8.742;2022-10-30T05:14:44;11.00;99.90
14349;DHT22;7258;50.376;8.742;2022-10-30T05:16:47;11.00;99.90
14349;DHT22;7258;50.376;8.742;2022-10-30T05:18:49;11.00;99.90
14349;DHT22;7258;50.376;8.742;2022-10-30T05:20:52;11.10;99.90
14349;DHT22;7258;50.376;8.742;2022-10-30T05:22:58;11.10;99.90
14349;DHT22;7258;50.376;8.742;2022-10-30T05:25:01;11.10;99.90
14349;DHT22;7258;50.376;8.742;2022-10-30T05:27:04;11.00;99.90
14349;DHT22;7258;50.376;8.742;2022-10-30T05:29:06;11.00;99.90
14349;DHT22;7258;50.376;8.742;2022-10-30T05:31:09;11.00;99.90
14349;DHT22;7258;50.376;8.742;2022-10-30T05:33:12;11.00;99.90
14349;DHT22;7258;50.376;8.742;2022-10-30T05:35:18;10.90;99.90
14349;DHT22;7258;50.376;8.742;2022-10-30T05:37:20;10.90;99.90
14349;DHT22;7258;50.376;8.742;2022-10-30T05:39:24;10.90;99.90
14349;DHT22;7258;50.376;8.742;2022-10-30T05:41:27;10.90;99.90
14349;DHT22;7258;50.376;8.742;2022-10-30T05:43:30;10.90;99.90
14349;DHT22;7258;50.376;8.742;2022-10-30T05:45:33;10.90;99.90
14349;DHT22;7258;50.376;8.742;2022-10-30T05:47:35;10.90;99.90
14349;DHT22;7258;50.376;8.742;2022-10-30T05:49:38;10.90;99.90
14349;DHT22;7258;50.376;8.742;2022-10-30T05:51:41;10.90;99.90
14349;DHT22;7258;50.376;8.742;2022-10-30T05:53:46;10.90;99.90
14349;DHT22;7258;50.376;8.742;2022-10-30T05:55:55;10.90;99.90
14349;DHT22;7258;50.376;8.742;2022-10-30T05:57:58;10.80;99.90
14349;DHT22;7258;50.376;8.742;2022-10-30T06:00:03;10.80;99.90
14349;DHT22;7258;50.376;8.742;2022-10-30T06:02:06;10.70;99.90
14349;DHT22;7258;50.376;8.742;2022-10-30T06:04:09;10.70;99.90
14349;DHT22;7258;50.376;8.742;2022-10-30T06:06:11;10.70;99.90
14349;DHT22;7258;50.376;8.742;2022-10-30T06:08:14;10.60;99.90
14349;DHT22;7258;50.376;8.742;2022-10-30T06:10:17;10.60;99.90
14349;DHT22;7258;50.376;8.742;2022-10-30T06:12:21;10.60;99.90
14349;DHT22;7258;50.376;8.742;2022-10-30T06:14:24;10.60;99.90
14349;DHT22;7258;50.376;8.742;2022-10-30T06:16:27;10.70;99.90
14349;DHT22;7258;50.376;8.742;2022-10-30T06:18:30;10.70;99.90
14349;DHT22;7258;50.376;8.742;2022-10-30T06:20:33;10.70;99.90
14349;DHT22;7258;50.376;8.742;2022-10-30T06:22:35;10.70;99.90
14349;DHT22;7258;50.376;8.742;2022-10-30T06:24:39;10.70;99.90
14349;DHT22;7258;50.376;8.742;2022-10-30T06:26:41;10.70;99.90
14349;DHT22;7258;50.376;8.742;2022-10-30T06:28:45;10.70;99.90
14349;DHT22;7258;50.376;8.742;2022-10-30T06:30:48;10.80;99.90
14349;DHT22;7258;50.376;8.742;2022-10-30T06:32:55;10.80;99.90
14349;DHT22;7258;50.376;8.742;2022-10-30T06:34:59;10.70;99.90
14349;DHT22;7258;50.376;8.742;2022-10-30T06:37:02;10.70;99.90
14349;DHT22;7258;50.376;8.742;2022-10-30T06:39:05;10.70;99.90
14349;DHT22;7258;50.376;8.742;2022-10-30T06:41:08;10.70;99.90
14349;DHT22;7258;50.376;8.742;2022-10-30T06:43:11;10.80;99.90
14349;DHT22;7258;50.376;8.742;2022-10-30T06:45:17;10.70;99.90
14349;DHT22;7258;50.376;8.742;2022-10-30T06:47:20;10.70;99.90
14349;DHT22;7258;50.376;8.742;2022-10-30T06:49:22;10.70;99.90
14349;DHT22;7258;50.376;8.742;2022-10-30T06:51:25;10.60;99.90
14349;DHT22;7258;50.376;8.742;2022-10-30T06:53:28;10.60;99.90
14349;DHT22;7258;50.376;8.742;2022-10-30T06:55:31;10.60;99.90
14349;DHT22;7258;50.376;8.742;2022-10-30T06:57:34;10.60;99.90
14349;DHT22;7258;50.376;8.742;2022-10-30T06:59:37;10.50;99.90
14349;DHT22;7258;50.376;8.742;2022-10-30T07:01:42;10.50;99.90
14349;DHT22;7258;50.376;8.742;2022-10-30T07:03:45;10.60;99.90
14349;DHT22;7258;50.376;8.742;2022-10-30T07:05:47;10.60;99.90
14349;DHT22;7258;50.376;8.742;2022-10-30T07:07:50;10.60;99.90
14349;DHT22;7258;50.376;8.742;2022-10-30T07:09:53;10.60;99.90
14349;DHT22;7258;50.376;8.742;2022-10-30T07:11:56;10.70;99.90
14349;DHT22;7258;50.376;8.742;2022-10-30T07:14:06;10.70;99.90
14349;DHT22;7258;50.376;8.742;2022-10-30T07:16:09;10.80;99.90
14349;DHT22;7258;50.376;8.742;2022-10-30T07:18:13;10.90;99.90
14349;DHT22;7258;50.376;8.742;2022-10-30T07:20:16;11.00;99.90
14349;DHT22;7258;50.376;8.742;2022-10-30T07:22:19;11.00;99.90
14349;DHT22;7258;50.376;8.742;2022-10-30T07:24:22;11.10;99.90
14349;DHT22;7258;50.376;8.742;2022-10-30T07:26:25;11.10;99.90
14349;DHT22;7258;50.376;8.742;2022-10-30T07:28:28;11.20;99.90
14349;DHT22;7258;50.376;8.742;2022-10-30T07:30:32;11.20;99.90
14349;DHT22;7258;50.376;8.742;2022-10-30T07:32:34;11.30;99.90
14349;DHT22;7258;50.376;8.742;2022-10-30T07:34:39;11.30;99.90
14349;DHT22;7258;50.376;8.742;2022-10-30T07:36:42;11.40;99.90
14349;DHT22;7258;50.376;8.742;2022-10-30T07:38:46;11.40;99.90
14349;DHT22;7258;50.376;8.742;2022-10-30T07:40:51;11.50;99.90
14349;DHT22;7258;50.376;8.742;2022-10-30T07:42:55;11.60;99.90
14349;DHT22;7258;50.376;8.742;2022-10-30T07:44:59;11.70;99.90
14349;DHT22;7258;50.376;8.742;2022-10-30T07:47:02;11.80;99.90
14349;DHT22;7258;50.376;8.742;2022-10-30T07:49:05;11.90;99.90
14349;DHT22;7258;50.376;8.742;2022-10-30T07:51:09;12.10;99.90
14349;DHT22;7258;50.376;8.742;2022-10-30T07:53:11;12.20;99.90
14349;DHT22;7258;50.376;8.742;2022-10-30T07:55:14;12.30;99.90
14349;DHT22;7258;50.376;8.742;2022-10-30T07:57:17;12.50;99.90
14349;DHT22;7258;50.376;8.742;2022-10-30T07:59:20;12.60;99.90
14349;DHT22;7258;50.376;8.742;2022-10-30T08:01:23;12.80;99.90
14349;DHT22;7258;50.376;8.742;2022-10-30T08:03:26;13.00;99.90
14349;DHT22;7258;50.376;8.742;2022-10-30T08:05:29;13.10;99.90
14349;DHT22;7258;50.376;8.742;2022-10-30T08:07:35;13.30;99.90
14349;DHT22;7258;50.376;8.742;2022-10-30T08:09:38;13.50;99.90
14349;DHT22;7258;50.376;8.742;2022-10-30T08:11:40;13.50;99.90
14349;DHT22;7258;50.376;8.742;2022-10-30T08:13:43;13.70;99.90
14349;DHT22;7258;50.376;8.742;2022-10-30T08:15:46;13.80;99.90
14349;DHT22;7258;50.376;8.742;2022-10-30T08:17:50;13.90;99.90
14349;DHT22;7258;50.376;8.742;2022-10-30T08:19:53;14.00;99.90
14349;DHT22;7258;50.376;8.742;2022-10-30T08:21:57;14.00;99.90
14349;DHT22;7258;50.376;8.742;2022-10-30T08:24:02;14.10;99.90
14349;DHT22;7258;50.376;8.742;2022-10-30T08:26:05;14.10;99.90
14349;DHT22;7258;50.376;8.742;2022-10-30T08:28:09;14.20;99.90
14349;DHT22;7258;50.376;8.742;2022-10-30T08:30:13;14.30;99.90
14349;DHT22;7258;50.376;8.742;2022-10-30T08:32:16;14.30;99.90
14349;DHT22;7258;50.376;8.742;2022-10-30T08:34:20;14.40;99.90
14349;DHT22;7258;50.376;8.742;2022-10-30T08:36:23;14.40;99.90
14349;DHT22;7258;50.376;8.742;2022-10-30T08:38:27;14.50;99.90
14349;DHT22;7258;50.376;8.742;2022-10-30T08:40:31;14.50;99.90
14349;DHT22;7258;50.376;8.742;2022-10-30T08:42:34;14.50;99.90
14349;DHT22;7258;50.376;8.742;2022-10-30T08:44:37;14.60;99.90
14349;DHT22;7258;50.376;8.742;2022-10-30T08:46:40;14.70;99.90
14349;DHT22;7258;50.376;8.742;2022-10-30T08:48:42;14.70;99.90
14349;DHT22;7258;50.376;8.742;2022-10-30T08:50:45;14.80;99.90
14349;DHT22;7258;50.376;8.742;2022-10-30T08:52:48;14.80;99.90
14349;DHT22;7258;50.376;8.742;2022-10-30T08:54:55;14.90;99.90
14349;DHT22;7258;50.376;8.742;2022-10-30T08:56:59;14.90;99.90
14349;DHT22;7258;50.376;8.742;2022-10-30T08:59:02;15.00;99.90
14349;DHT22;7258;50.376;8.742;2022-10-30T09:01:05;15.00;99.90
14349;DHT22;7258;50.376;8.742;2022-10-30T09:03:08;15.10;99.90
14349;DHT22;7258;50.376;8.742;2022-10-30T09:05:11;15.20;99.90
14349;DHT22;7258;50.376;8.742;2022-10-30T09:07:14;15.20;99.90
14349;DHT22;7258;50.376;8.742;2022-10-30T09:09:17;15.30;99.90
14349;DHT22;7258;50.376;8.742;2022-10-30T09:11:20;15.40;99.90
14349;DHT22;7258;50.376;8.742;2022-10-30T09:13:24;15.60;99.90
14349;DHT22;7258;50.376;8.742;2022-10-30T09:15:27;15.70;99.90
14349;DHT22;7258;50.376;8.742;2022-10-30T09:17:30;15.80;99.90
14349;DHT22;7258;50.376;8.742;2022-10-30T09:19:33;15.90;99.90
14349;DHT22;7258;50.376;8.742;2022-10-30T09:21:38;16.00;99.90
14349;DHT22;7258;50.376;8.742;2022-10-30T09:23:41;16.10;99.90
14349;DHT22;7258;50.376;8.742;2022-10-30T09:25:45;16.10;99.90
14349;DHT22;7258;50.376;8.742;2022-10-30T09:27:47;16.10;99.90
14349;DHT22;7258;50.376;8.742;2022-10-30T09:29:52;16.20;99.90
14349;DHT22;7258;50.376;8.742;2022-10-30T09:31:54;16.20;99.90
14349;DHT22;7258;50.376;8.742;2022-10-30T09:33:57;16.30;99.90
14349;DHT22;7258;50.376;8.742;2022-10-30T09:36:00;16.30;99.90
14349;DHT22;7258;50.376;8.742;2022-10-30T09:38:03;16.40;99.90
14349;DHT22;7258;50.376;8.742;2022-10-30T09:40:09;16.40;99.90
14349;DHT22;7258;50.376;8.742;2022-10-30T09:42:30;16.50;99.90
14349;DHT22;7258;50.376;8.742;2022-10-30T09:44:46;16.60;99.90
14349;DHT22;7258;50.376;8.742;2022-10-30T09:47:20;16.60;99.90
14349;DHT22;7258;50.376;8.742;2022-10-30T09:49:42;16.70;99.90
14349;DHT22;7258;50.376;8.742;2022-10-30T09:52:18;16.70;99.90
14349;DHT22;7258;50.376;8.742;2022-10-30T09:54:29;16.80;99.90
14349;DHT22;7258;50.376;8.742;2022-10-30T09:56:43;16.90;99.90
14349;DHT22;7258;50.376;8.742;2022-10-30T09:58:52;17.00;99.90
14349;DHT22;7258;50.376;8.742;2022-10-30T10:01:08;17.00;99.90
14349;DHT22;7258;50.376;8.742;2022-10-30T10:03:35;17.10;99.90
14349;DHT22;7258;50.376;8.742;2022-10-30T10:05:43;17.10;99.90
14349;DHT22;7258;50.376;8.742;2022-10-30T10:07:50;17.10;99.90
14349;DHT22;7258;50.376;8.742;2022-10-30T10:09:59;17.20;99.90
14349;DHT22;7258;50.376;8.742;2022-10-30T10:12:05;17.20;99.90
14349;DHT22;7258;50.376;8.742;2022-10-30T10:14:14;17.20;99.90
14349;DHT22;7258;50.376;8.742;2022-10-30T10:16:20;17.30;99.90
14349;DHT22;7258;50.376;8.742;2022-10-30T10:18:25;17.30;99.90
14349;DHT22;7258;50.376;8.742;2022-10-30T10:20:35;17.40;99.90
14349;DHT22;7258;50.376;8.742;2022-10-30T10:22:42;17.40;99.90
14349;DHT22;7258;50.376;8.742;2022-10-30T10:24:47;17.50;99.90
14349;DHT22;7258;50.376;8.742;2022-10-30T10:26:55;17.60;99.90
14349;DHT22;7258;50.376;8.742;2022-10-30T10:29:18;17.60;99.90
14349;DHT22;7258;50.376;8.742;2022-10-30T10:31:29;17.70;99.90
14349;DHT22;7258;50.376;8.742;2022-10-30T10:33:47;17.70;99.90
14349;DHT22;7258;50.376;8.742;2022-10-30T10:36:08;17.70;99.90
14349;DHT22;7258;50.376;8.742;2022-10-30T10:38:21;17.80;99.90
14349;DHT22;7258;50.376;8.742;2022-10-30T10:40:38;17.90;99.90
14349;DHT22;7258;50.376;8.742;2022-10-30T10:42:48;17.90;99.90
14349;DHT22;7258;50.376;8.742;2022-10-30T10:45:14;18.00;99.90
14349;DHT22;7258;50.376;8.742;2022-10-30T10:47:33;18.00;99.90
14349;DHT22;7258;50.376;8.742;2022-10-30T10:49:53;18.00;99.90
14349;DHT22;7258;50.376;8.742;2022-10-30T10:52:04;18.00;99.90
14349;DHT22;7258;50.376;8.742;2022-10-30T10:54:15;18.10;99.90
14349;DHT22;7258;50.376;8.742;2022-10-30T10:56:26;18.10;99.90
14349;DHT22;7258;50.376;8.742;2022-10-30T10:58:32;18.10;99.90
14349;DHT22;7258;50.376;8.742;2022-10-30T11:00:39;18.10;99.90
14349;DHT22;7258;50.376;8.742;2022-10-30T11:02:46;18.10;99.90
14349;DHT22;7258;50.376;8.742;2022-10-30T11:04:53;18.10;99.90
14349;DHT22;7258;50.376;8.742;2022-10-30T11:06:57;18.10;99.90
14349;DHT22;7258;50.376;8.742;2022-10-30T11:09:13;18.10;99.90
14349;DHT22;7258;50.376;8.742;2022-10-30T11:11:17;18.10;99.90
14349;DHT22;7258;50.376;8.742;2022-10-30T11:13:20;18.20;99.90
14349;DHT22;7258;50.376;8.742;2022-10-30T11:15:34;18.20;99.90
14349;DHT22;7258;50.376;8.742;2022-10-30T11:17:43;18.30;99.90
14349;DHT22;7258;50.376;8.742;2022-10-30T11:19:49;18.30;99.90
14349;DHT22;7258;50.376;8.742;2022-10-30T11:21:54;18.40;99.90
14349;DHT22;7258;50.376;8.742;2022-10-30T11:23:57;18.50;99.90
14349;DHT22;7258;50.376;8.742;2022-10-30T11:26:02;18.50;99.90
14349;DHT22;7258;50.376;8.742;2022-10-30T11:28:05;18.60;99.90
14349;DHT22;7258;50.376;8.742;2022-10-30T11:30:17;18.70;99.90
14349;DHT22;7258;50.376;8.742;2022-10-30T11:32:23;18.70;99.90
14349;DHT22;7258;50.376;8.742;2022-10-30T11:34:34;18.70;99.90
14349;DHT22;7258;50.376;8.742;2022-10-30T11:36:37;18.80;99.90
14349;DHT22;7258;50.376;8.742;2022-10-30T11:38:40;18.80;99.90
14349;DHT22;7258;50.376;8.742;2022-10-30T11:40:46;18.80;99.90
14349;DHT22;7258;50.376;8.742;2022-10-30T11:42:58;18.90;99.90
14349;DHT22;7258;50.376;8.742;2022-10-30T11:45:04;18.90;99.90
14349;DHT22;7258;50.376;8.742;2022-10-30T11:47:09;18.90;99.90
14349;DHT22;7258;50.376;8.742;2022-10-30T11:49:27;18.90;99.90
14349;DHT22;7258;50.376;8.742;2022-10-30T11:51:35;19.00;99.90
14349;DHT22;7258;50.376;8.742;2022-10-30T11:53:41;19.00;99.90
14349;DHT22;7258;50.376;8.742;2022-10-30T11:55:46;19.00;99.90
14349;DHT22;7258;50.376;8.742;2022-10-30T11:57:51;19.00;99.90
14349;DHT22;7258;50.376;8.742;2022-10-30T12:00:02;19.00;99.90
14349;DHT22;7258;50.376;8.742;2022-10-30T12:02:20;19.10;99.90
14349;DHT22;7258;50.376;8.742;2022-10-30T12:04:25;19.10;99.90
14349;DHT22;7258;50.376;8.742;2022-10-30T12:06:28;19.10;99.90
14349;DHT22;7258;50.376;8.742;2022-10-30T12:08:31;19.20;99.90
14349;DHT22;7258;50.376;8.742;2022-10-30T12:10:40;19.20;99.90
14349;DHT22;7258;50.376;8.742;2022-10-30T12:12:44;19.20;99.90
14349;DHT22;7258;50.376;8.742;2022-10-30T12:14:54;19.30;99.90
14349;DHT22;7258;50.376;8.742;2022-10-30T12:16:57;19.30;99.90
14349;DHT22;7258;50.376;8.742;2022-10-30T12:19:02;19.40;99.90
14349;DHT22;7258;50.376;8.742;2022-10-30T12:21:06;19.40;99.90
14349;DHT22;7258;50.376;8.742;2022-10-30T12:23:10;19.40;99.90
14349;DHT22;7258;50.376;8.742;2022-10-30T12:25:22;19.50;99.90
14349;DHT22;7258;50.376;8.742;2022-10-30T12:27:26;19.40;99.90
14349;DHT22;7258;50.376;8.742;2022-10-30T12:29:37;19.40;99.90
14349;DHT22;7258;50.376;8.742;2022-10-30T12:32:06;19.40;99.90
14349;DHT22;7258;50.376;8.742;2022-10-30T12:34:33;19.50;99.90
14349;DHT22;7258;50.376;8.742;2022-10-30T12:36:44;19.50;99.90
14349;DHT22;7258;50.376;8.742;2022-10-30T12:38:49;19.50;99.90
14349;DHT22;7258;50.376;8.742;2022-10-30T12:41:03;19.60;99.90
14349;DHT22;7258;50.376;8.742;2022-10-30T12:43:13;19.60;99.90
14349;DHT22;7258;50.376;8.742;2022-10-30T12:45:20;19.60;99.90
14349;DHT22;7258;50.376;8.742;2022-10-30T12:47:30;19.70;99.90
14349;DHT22;7258;50.376;8.742;2022-10-30T12:49:40;19.70;99.90
14349;DHT22;7258;50.376;8.742;2022-10-30T12:51:48;19.80;99.90
14349;DHT22;7258;50.376;8.742;2022-10-30T12:53:56;19.80;99.90
14349;DHT22;7258;50.376;8.742;2022-10-30T12:56:07;19.90;99.90
14349;DHT22;7258;50.376;8.742;2022-10-30T12:58:17;19.80;99.90
14349;DHT22;7258;50.376;8.742;2022-10-30T13:00:24;19.80;99.90
14349;DHT22;7258;50.376;8.742;2022-10-30T13:02:43;19.80;99.90
14349;DHT22;7258;50.376;8.742;2022-10-30T13:04:50;19.90;99.90
14349;DHT22;7258;50.376;8.742;2022-10-30T13:07:03;19.90;99.90
14349;DHT22;7258;50.376;8.742;2022-10-30T13:09:11;20.00;99.90
14349;DHT22;7258;50.376;8.742;2022-10-30T13:11:23;20.00;99.90
14349;DHT22;7258;50.376;8.742;2022-10-30T13:13:34;20.00;99.90
14349;DHT22;7258;50.376;8.742;2022-10-30T13:15:43;20.00;99.90
14349;DHT22;7258;50.376;8.742;2022-10-30T13:17:48;20.10;99.90
14349;DHT22;7258;50.376;8.742;2022-10-30T13:19:51;20.10;99.90
14349;DHT22;7258;50.376;8.742;2022-10-30T13:21:58;20.10;99.90
14349;DHT22;7258;50.376;8.742;2022-10-30T13:24:04;20.10;99.90
14349;DHT22;7258;50.376;8.742;2022-10-30T13:26:21;20.20;99.90